sensor_id;sensor_type;location;lat;lon;timestamp;P1;durP1;ratioP1;P2;durP2;ratioP2
5630;SDS011;2837;50.990;7.124;2023-03-01T06:02:01;168.40;;;9.47;;
5630;SDS011;2837;50.990;7.124;2023-03-01T06:04:26;168.17;;;9.23;;
5630;SDS011;2837;50.990;7.124;2023-03-01T06:06:52;167.30;;;9.07;;
5630;SDS011;2837;50.990;7.124;2023-03-01T06:09:17;168.30;;;9.80;;
5630;SDS011;2837;50.990;7.124;2023-03-01T06:11:43;165.90;;;8.97;;
5630;SDS011;2837;50.990;7.124;2023-03-01T06:14:09;167.37;;;9.07;;
5630;SDS011;2837;50.990;7.124;2023-03-01T06:16:37;166.67;;;8.77;;
5630;SDS011;2837;50.990;7.124;2023-03-01T06:19:03;167.93;;;9.00;;
5630;SDS011;2837;50.990;7.124;2023-03-01T06:21:28;168.47;;;9.87;;
5630;SDS011;2837;50.990;7.124;2023-03-01T06:23:54;170.17;;;8.97;;
5630;SDS011;2837;50.990;7.124;2023-03-01T06:26:19;167.07;;;9.63;;
5630;SDS011;2837;50.990;7.124;2023-03-01T06:28:45;166.87;;;8.80;;
5630;SDS011;2837;50.990;7.124;2023-03-01T06:31:11;166.70;;;9.10;;
5630;SDS011;2837;50.990;7.124;2023-03-01T06:33:37;166.03;;;8.77;;
5630;SDS011;2837;50.990;7.124;2023-03-01T06:36:02;167.17;;;9.40;;
5630;SDS011;2837;50.990;7.124;2023-03-01T06:38:28;166.77;;;9.00;;
5630;SDS011;2837;50.990;7.124;2023-03-01T06:40:54;170.57;;;9.63;;
5630;SDS011;2837;50.990;7.124;2023-03-01T06:43:21;167.00;;;9.03;;
5630;SDS011;2837;50.990;7.124;2023-03-01T06:45:48;166.60;;;9.10;;
5630;SDS011;2837;50.990;7.124;2023-03-01T06:48:14;166.77;;;9.00;;
5630;SDS011;2837;50.990;7.124;2023-03-01T06:50:39;169.03;;;9.13;;
5630;SDS011;2837;50.990;7.124;2023-03-01T06:53:05;168.57;;;9.43;;
5630;SDS011;2837;50.990;7.124;2023-03-01T06:55:31;169.57;;;9.40;;
5630;SDS011;2837;50.990;7.124;2023-03-01T06:57:57;166.90;;;9.00;;
5630;SDS011;2837;50.990;7.124;2023-03-01T07:00:24;167.50;;;9.17;;
5630;SDS011;2837;50.990;7.124;2023-03-01T07:02:50;167.63;;;9.33;;
5630;SDS011;2837;50.990;7.124;2023-03-01T07:05:16;166.57;;;8.83;;
5630;SDS011;2837;50.990;7.124;2023-03-01T07:07:42;168.57;;;9.50;;
5630;SDS011;2837;50.990;7.124;2023-03-01T07:10:08;168.40;;;10.13;;
5630;SDS011;2837;50.990;7.124;2023-03-01T07:12:34;167.37;;;9.47;;
5630;SDS011;2837;50.990;7.124;2023-03-01T07:15:00;166.93;;;9.80;;
5630;SDS011;2837;50.990;7.124;2023-03-01T07:17:25;171.13;;;9.83;;
5630;SDS011;2837;50.990;7.124;2023-03-01T07:19:51;166.93;;;9.30;;
5630;SDS011;2837;50.990;7.124;2023-03-01T07:22:16;167.73;;;9.10;;
5630;SDS011;2837;50.990;7.124;2023-03-01T07:24:42;168.10;;;10.10;;
5630;SDS011;2837;50.990;7.124;2023-03-01T07:27:08;166.20;;;9.00;;
5630;SDS011;2837;50.990;7.124;2023-03-01T07:29:34;167.50;;;9.27;;
5630;SDS011;2837;50.990;7.124;2023-03-01T07:32:01;167.97;;;9.47;;
5630;SDS011;2837;50.990;7.124;2023-03-01T07:34:27;167.47;;;10.13;;
5630;SDS011;2837;50.990;7.124;2023-03-01T07:36:52;168.23;;;8.80;;
5630;SDS011;2837;50.990;7.124;2023-03-01T07:39:18;166.83;;;9.37;;
5630;SDS011;2837;50.990;7.124;2023-03-01T07:41:44;168.90;;;10.30;;
5630;SDS011;2837;50.990;7.124;2023-03-01T07:44:09;167.27;;;9.70;;
5630;SDS011;2837;50.990;7.124;2023-03-01T07:46:35;167.77;;;9.40;;
5630;SDS011;2837;50.990;7.124;2023-03-01T07:49:01;167.73;;;9.00;;
5630;SDS011;2837;50.990;7.124;2023-03-01T07:51:26;166.87;;;9.23;;
5630;SDS011;2837;50.990;7.124;2023-03-01T07:53:52;170.17;;;9.63;;
5630;SDS011;2837;50.990;7.124;2023-03-01T07:56:18;168.67;;;10.00;;
5630;SDS011;2837;50.990;7.124;2023-03-01T07:58:44;168.70;;;9.50;;
5630;SDS011;2837;50.990;7.124;2023-03-01T08:01:11;169.70;;;9.60;;
5630;SDS011;2837;50.990;7.124;2023-03-01T08:03:39;167.37;;;9.80;;
5630;SDS011;2837;50.990;7.124;2023-03-01T08:06:06;166.87;;;9.37;;
5630;SDS011;2837;50.990;7.124;2023-03-01T08:08:33;167.93;;;9.30;;
5630;SDS011;2837;50.990;7.124;2023-03-01T08:11:00;166.73;;;9.20;;
5630;SDS011;2837;50.990;7.124;2023-03-01T08:13:26;167.97;;;9.37;;
5630;SDS011;2837;50.990;7.124;2023-03-01T08:15:52;166.97;;;9.30;;
5630;SDS011;2837;50.990;7.124;2023-03-01T08:18:18;166.63;;;9.70;;
5630;SDS011;2837;50.990;7.124;2023-03-01T08:20:45;168.17;;;10.13;;
5630;SDS011;2837;50.990;7.124;2023-03-01T08:23:10;168.17;;;10.10;;
5630;SDS011;2837;50.990;7.124;2023-03-01T08:25:36;166.67;;;9.60;;
5630;SDS011;2837;50.990;7.124;2023-03-01T08:28:02;166.23;;;9.40;;
5630;SDS011;2837;50.990;7.124;2023-03-01T08:30:28;167.97;;;9.57;;
5630;SDS011;2837;50.990;7.124;2023-03-01T08:32:54;166.30;;;9.40;;
5630;SDS011;2837;50.990;7.124;2023-03-01T08:35:20;168.43;;;9.23;;
5630;SDS011;2837;50.990;7.124;2023-03-01T08:37:46;167.27;;;10.03;;
5630;SDS011;2837;50.990;7.124;2023-03-01T08:40:12;167.07;;;10.00;;
5630;SDS011;2837;50.990;7.124;2023-03-01T08:42:40;166.13;;;9.50;;
5630;SDS011;2837;50.990;7.124;2023-03-01T08:45:07;167.10;;;9.57;;
5630;SDS011;2837;50.990;7.124;2023-03-01T08:47:33;167.97;;;9.90;;
5630;SDS011;2837;50.990;7.124;2023-03-01T08:49:59;165.77;;;9.63;;
5630;SDS011;2837;50.990;7.124;2023-03-01T08:52:25;165.77;;;9.70;;
5630;SDS011;2837;50.990;7.124;2023-03-01T08:54:51;165.00;;;9.40;;
5630;SDS011;2837;50.990;7.124;2023-03-01T08:57:17;166.57;;;9.63;;
5630;SDS011;2837;50.990;7.124;2023-03-01T08:59:43;164.70;;;8.90;;
5630;SDS011;2837;50.990;7.124;2023-03-01T09:02:11;164.13;;;8.77;;
5630;SDS011;2837;50.990;7.124;2023-03-01T09:04:38;166.07;;;9.17;;
5630;SDS011;2837;50.990;7.124;2023-03-01T09:07:04;167.00;;;8.63;;
5630;SDS011;2837;50.990;7.124;2023-03-01T09:09:30;166.47;;;9.20;;
5630;SDS011;2837;50.990;7.124;2023-03-01T09:11:56;164.43;;;8.40;;
5630;SDS011;2837;50.990;7.124;2023-03-01T09:14:22;165.27;;;8.90;;
5630;SDS011;2837;50.990;7.124;2023-03-01T09:16:47;166.03;;;8.90;;
5630;SDS011;2837;50.990;7.124;2023-03-01T09:19:13;163.67;;;9.03;;
5630;SDS011;2837;50.990;7.124;2023-03-01T09:21:39;167.13;;;9.60;;
5630;SDS011;2837;50.990;7.124;2023-03-01T09:24:05;164.47;;;9.17;;
5630;SDS011;2837;50.990;7.124;2023-03-01T09:26:31;164.17;;;9.57;;
5630;SDS011;2837;50.990;7.124;2023-03-01T09:28:57;164.30;;;9.10;;
5630;SDS011;2837;50.990;7.124;2023-03-01T09:31:23;163.40;;;8.57;;
5630;SDS011;2837;50.990;7.124;2023-03-01T09:33:51;164.77;;;9.40;;
5630;SDS011;2837;50.990;7.124;2023-03-01T09:36:18;163.47;;;8.90;;
5630;SDS011;2837;50.990;7.124;2023-03-01T09:38:46;166.97;;;9.20;;
5630;SDS011;2837;50.990;7.124;2023-03-01T09:46:24;162.57;;;8.70;;
5630;SDS011;2837;50.990;7.124;2023-03-01T09:48:55;163.90;;;8.90;;
5630;SDS011;2837;50.990;7.124;2023-03-01T09:51:28;163.77;;;9.30;;
5630;SDS011;2837;50.990;7.124;2023-03-01T09:53:56;165.30;;;9.30;;
5630;SDS011;2837;50.990;7.124;2023-03-01T09:59:36;163.33;;;9.07;;
5630;SDS011;2837;50.990;7.124;2023-03-01T10:01:48;163.27;;;9.00;;
5630;SDS011;2837;50.990;7.124;2023-03-01T10:09:36;169.97;;;10.43;;
5630;SDS011;2837;50.990;7.124;2023-03-01T10:12:04;164.90;;;9.23;;
5630;SDS011;2837;50.990;7.124;2023-03-01T10:20:19;164.77;;;9.23;;
5630;SDS011;2837;50.990;7.124;2023-03-01T10:22:46;164.93;;;10.10;;
5630;SDS011;2837;50.990;7.124;2023-03-01T10:25:20;163.80;;;9.13;;
5630;SDS011;2837;50.990;7.124;2023-03-01T10:28:16;163.57;;;8.90;;
5630;SDS011;2837;50.990;7.124;2023-03-01T10:30:49;164.13;;;10.10;;
5630;SDS011;2837;50.990;7.124;2023-03-01T10:33:17;164.60;;;9.27;;
5630;SDS011;2837;50.990;7.124;2023-03-01T10:35:46;164.00;;;9.40;;
5630;SDS011;2837;50.990;7.124;2023-03-01T10:38:13;163.83;;;8.87;;
5630;SDS011;2837;50.990;7.124;2023-03-01T10:40:59;162.30;;;8.90;;
5630;SDS011;2837;50.990;7.124;2023-03-01T10:44:13;162.83;;;9.03;;
5630;SDS011;2837;50.990;7.124;2023-03-01T10:46:28;164.37;;;9.17;;
5630;SDS011;2837;50.990;7.124;2023-03-01T10:49:20;161.97;;;8.50;;
5630;SDS011;2837;50.990;7.124;2023-03-01T10:51:48;163.53;;;9.60;;
5630;SDS011;2837;50.990;7.124;2023-03-01T10:54:19;164.73;;;9.70;;
5630;SDS011;2837;50.990;7.124;2023-03-01T10:56:56;162.20;;;8.97;;
5630;SDS011;2837;50.990;7.124;2023-03-01T10:59:31;163.47;;;9.37;;
5630;SDS011;2837;50.990;7.124;2023-03-01T11:02:22;162.67;;;8.77;;
5630;SDS011;2837;50.990;7.124;2023-03-01T11:05:00;162.20;;;8.53;;
5630;SDS011;2837;50.990;7.124;2023-03-01T11:07:27;161.63;;;9.07;;
5630;SDS011;2837;50.990;7.124;2023-03-01T11:09:53;161.47;;;8.47;;
5630;SDS011;2837;50.990;7.124;2023-03-01T11:12:20;163.07;;;8.73;;
5630;SDS011;2837;50.990;7.124;2023-03-01T11:14:50;162.23;;;8.53;;
5630;SDS011;2837;50.990;7.124;2023-03-01T11:17:27;161.57;;;9.27;;
5630;SDS011;2837;50.990;7.124;2023-03-01T11:20:02;161.87;;;8.87;;
5630;SDS011;2837;50.990;7.124;2023-03-01T11:23:21;163.27;;;9.10;;
5630;SDS011;2837;50.990;7.124;2023-03-01T11:25:32;167.60;;;10.47;;
5630;SDS011;2837;50.990;7.124;2023-03-01T11:28:02;164.43;;;9.80;;
5630;SDS011;2837;50.990;7.124;2023-03-01T11:31:04;161.47;;;9.10;;
5630;SDS011;2837;50.990;7.124;2023-03-01T11:36:19;161.87;;;8.93;;
5630;SDS011;2837;50.990;7.124;2023-03-01T11:38:55;162.30;;;9.27;;
5630;SDS011;2837;50.990;7.124;2023-03-01T11:41:26;162.07;;;9.40;;
5630;SDS011;2837;50.990;7.124;2023-03-01T11:51:40;165.77;;;8.97;;
5630;SDS011;2837;50.990;7.124;2023-03-01T11:57:01;163.13;;;8.90;;
5630;SDS011;2837;50.990;7.124;2023-03-01T12:02:21;161.00;;;8.43;;
5630;SDS011;2837;50.990;7.124;2023-03-01T12:11:16;162.07;;;8.87;;
5630;SDS011;2837;50.990;7.124;2023-03-01T12:13:57;162.27;;;9.37;;
5630;SDS011;2837;50.990;7.124;2023-03-01T12:22:29;160.27;;;8.43;;
5630;SDS011;2837;50.990;7.124;2023-03-01T12:38:50;161.83;;;8.83;;
5630;SDS011;2837;50.990;7.124;2023-03-01T12:44:11;163.07;;;9.10;;
5630;SDS011;2837;50.990;7.124;2023-03-01T12:49:45;160.67;;;9.13;;
5630;SDS011;2837;50.990;7.124;2023-03-01T12:52:44;160.33;;;8.20;;
5630;SDS011;2837;50.990;7.124;2023-03-01T12:55:29;161.37;;;8.63;;
5630;SDS011;2837;50.990;7.124;2023-03-01T12:58:01;159.80;;;8.70;;
5630;SDS011;2837;50.990;7.124;2023-03-01T13:00:40;161.10;;;9.40;;
5630;SDS011;2837;50.990;7.124;2023-03-01T13:06:07;160.27;;;8.63;;
5630;SDS011;2837;50.990;7.124;2023-03-01T13:08:54;163.27;;;8.67;;
5630;SDS011;2837;50.990;7.124;2023-03-01T13:11:32;160.47;;;8.90;;
5630;SDS011;2837;50.990;7.124;2023-03-01T13:16:50;159.17;;;8.17;;
5630;SDS011;2837;50.990;7.124;2023-03-01T13:19:27;158.90;;;7.83;;
5630;SDS011;2837;50.990;7.124;2023-03-01T13:22:01;162.57;;;8.93;;
5630;SDS011;2837;50.990;7.124;2023-03-01T13:25:01;159.37;;;8.33;;
5630;SDS011;2837;50.990;7.124;2023-03-01T13:27:36;163.67;;;9.33;;
5630;SDS011;2837;50.990;7.124;2023-03-01T13:30:01;158.70;;;8.20;;
5630;SDS011;2837;50.990;7.124;2023-03-01T13:32:32;158.67;;;8.73;;
5630;SDS011;2837;50.990;7.124;2023-03-01T13:35:06;159.27;;;9.07;;
5630;SDS011;2837;50.990;7.124;2023-03-01T13:37:51;159.83;;;8.57;;
5630;SDS011;2837;50.990;7.124;2023-03-01T13:42:48;158.57;;;8.17;;
5630;SDS011;2837;50.990;7.124;2023-03-01T13:45:26;157.83;;;8.47;;
5630;SDS011;2837;50.990;7.124;2023-03-01T13:48:11;159.57;;;8.13;;
5630;SDS011;2837;50.990;7.124;2023-03-01T13:50:46;159.23;;;8.77;;
5630;SDS011;2837;50.990;7.124;2023-03-01T13:53:17;159.97;;;7.87;;
5630;SDS011;2837;50.990;7.124;2023-03-01T13:55:55;157.97;;;8.13;;
5630;SDS011;2837;50.990;7.124;2023-03-01T13:58:24;158.63;;;7.77;;
5630;SDS011;2837;50.990;7.124;2023-03-01T14:00:55;158.37;;;8.63;;
5630;SDS011;2837;50.990;7.124;2023-03-01T14:03:32;158.27;;;7.93;;
5630;SDS011;2837;50.990;7.124;2023-03-01T14:06:06;158.43;;;8.83;;
5630;SDS011;2837;50.990;7.124;2023-03-01T14:08:36;157.60;;;7.97;;
5630;SDS011;2837;50.990;7.124;2023-03-01T14:19:21;158.30;;;8.90;;
5630;SDS011;2837;50.990;7.124;2023-03-01T14:24:31;157.73;;;8.30;;
5630;SDS011;2837;50.990;7.124;2023-03-01T14:27:01;159.00;;;8.83;;
5630;SDS011;2837;50.990;7.124;2023-03-01T14:29:27;157.47;;;8.50;;
5630;SDS011;2837;50.990;7.124;2023-03-01T14:32:19;157.87;;;8.20;;
5630;SDS011;2837;50.990;7.124;2023-03-01T14:34:48;157.40;;;8.13;;
5630;SDS011;2837;50.990;7.124;2023-03-01T14:37:34;160.43;;;9.43;;
5630;SDS011;2837;50.990;7.124;2023-03-01T14:40:00;162.13;;;9.27;;
5630;SDS011;2837;50.990;7.124;2023-03-01T14:42:29;159.37;;;8.97;;
5630;SDS011;2837;50.990;7.124;2023-03-01T14:44:59;156.47;;;8.10;;
5630;SDS011;2837;50.990;7.124;2023-03-01T14:49:58;159.37;;;9.27;;
5630;SDS011;2837;50.990;7.124;2023-03-01T14:52:37;159.57;;;9.30;;
5630;SDS011;2837;50.990;7.124;2023-03-01T14:55:13;158.10;;;9.30;;
5630;SDS011;2837;50.990;7.124;2023-03-01T14:57:43;159.83;;;8.77;;
5630;SDS011;2837;50.990;7.124;2023-03-01T15:00:16;159.00;;;8.97;;
5630;SDS011;2837;50.990;7.124;2023-03-01T15:02:45;158.47;;;8.70;;
5630;SDS011;2837;50.990;7.124;2023-03-01T15:05:13;160.67;;;9.47;;
5630;SDS011;2837;50.990;7.124;2023-03-01T15:07:40;159.87;;;8.80;;
5630;SDS011;2837;50.990;7.124;2023-03-01T15:10:20;158.97;;;8.80;;
5630;SDS011;2837;50.990;7.124;2023-03-01T15:12:48;161.50;;;9.43;;
5630;SDS011;2837;50.990;7.124;2023-03-01T15:17:48;160.60;;;8.97;;
5630;SDS011;2837;50.990;7.124;2023-03-01T15:20:20;161.87;;;8.63;;
5630;SDS011;2837;50.990;7.124;2023-03-01T15:22:50;159.63;;;8.77;;
5630;SDS011;2837;50.990;7.124;2023-03-01T15:25:16;157.27;;;8.17;;
5630;SDS011;2837;50.990;7.124;2023-03-01T15:27:48;157.37;;;8.00;;
5630;SDS011;2837;50.990;7.124;2023-03-01T15:30:20;159.27;;;8.37;;
5630;SDS011;2837;50.990;7.124;2023-03-01T15:35:52;158.67;;;8.60;;
5630;SDS011;2837;50.990;7.124;2023-03-01T15:41:00;161.20;;;7.83;;
5630;SDS011;2837;50.990;7.124;2023-03-01T15:43:42;159.27;;;8.57;;
5630;SDS011;2837;50.990;7.124;2023-03-01T15:49:17;161.87;;;8.53;;
5630;SDS011;2837;50.990;7.124;2023-03-01T15:52:23;157.10;;;7.77;;
5630;SDS011;2837;50.990;7.124;2023-03-01T15:54:58;159.33;;;9.27;;
5630;SDS011;2837;50.990;7.124;2023-03-01T15:57:26;160.03;;;8.23;;
5630;SDS011;2837;50.990;7.124;2023-03-01T15:59:51;158.23;;;8.17;;
5630;SDS011;2837;50.990;7.124;2023-03-01T16:02:17;159.20;;;8.33;;
5630;SDS011;2837;50.990;7.124;2023-03-01T16:04:45;159.97;;;9.17;;
5630;SDS011;2837;50.990;7.124;2023-03-01T16:07:11;157.23;;;7.80;;
5630;SDS011;2837;50.990;7.124;2023-03-01T16:09:37;160.30;;;8.60;;
5630;SDS011;2837;50.990;7.124;2023-03-01T16:12:03;157.67;;;8.47;;
5630;SDS011;2837;50.990;7.124;2023-03-01T16:14:28;158.83;;;8.57;;
5630;SDS011;2837;50.990;7.124;2023-03-01T16:16:54;159.00;;;9.07;;
5630;SDS011;2837;50.990;7.124;2023-03-01T16:19:19;157.97;;;8.47;;
5630;SDS011;2837;50.990;7.124;2023-03-01T16:21:45;157.87;;;8.40;;
5630;SDS011;2837;50.990;7.124;2023-03-01T16:24:12;159.50;;;8.57;;
5630;SDS011;2837;50.990;7.124;2023-03-01T16:26:38;159.97;;;8.40;;
5630;SDS011;2837;50.990;7.124;2023-03-01T16:29:03;158.43;;;8.73;;
5630;SDS011;2837;50.990;7.124;2023-03-01T16:31:29;158.70;;;8.73;;
5630;SDS011;2837;50.990;7.124;2023-03-01T16:33:56;158.87;;;9.07;;
5630;SDS011;2837;50.990;7.124;2023-03-01T16:36:23;159.63;;;8.40;;
5630;SDS011;2837;50.990;7.124;2023-03-01T16:38:50;159.10;;;8.30;;
5630;SDS011;2837;50.990;7.124;2023-03-01T16:41:17;158.87;;;8.53;;
5630;SDS011;2837;50.990;7.124;2023-03-01T16:43:44;159.00;;;8.50;;
5630;SDS011;2837;50.990;7.124;2023-03-01T16:46:17;156.43;;;7.30;;
5630;SDS011;2837;50.990;7.124;2023-03-01T16:48:48;157.13;;;8.50;;
5630;SDS011;2837;50.990;7.124;2023-03-01T16:51:14;159.00;;;8.47;;
5630;SDS011;2837;50.990;7.124;2023-03-01T16:53:40;159.87;;;8.70;;
5630;SDS011;2837;50.990;7.124;2023-03-01T16:56:07;163.57;;;8.17;;
5630;SDS011;2837;50.990;7.124;2023-03-01T16:58:35;157.47;;;7.83;;
5630;SDS011;2837;50.990;7.124;2023-03-01T17:01:08;160.33;;;8.57;;
5630;SDS011;2837;50.990;7.124;2023-03-01T17:03:36;160.17;;;8.13;;
5630;SDS011;2837;50.990;7.124;2023-03-01T17:06:06;158.73;;;8.43;;
5630;SDS011;2837;50.990;7.124;2023-03-01T17:08:35;160.80;;;9.00;;
5630;SDS011;2837;50.990;7.124;2023-03-01T17:11:02;161.17;;;9.30;;
5630;SDS011;2837;50.990;7.124;2023-03-01T17:13:35;158.43;;;8.23;;
5630;SDS011;2837;50.990;7.124;2023-03-01T17:16:02;158.57;;;8.57;;
5630;SDS011;2837;50.990;7.124;2023-03-01T17:18:29;158.90;;;8.23;;
5630;SDS011;2837;50.990;7.124;2023-03-01T17:20:55;161.30;;;8.67;;
5630;SDS011;2837;50.990;7.124;2023-03-01T17:23:21;159.20;;;8.77;;
5630;SDS011;2837;50.990;7.124;2023-03-01T17:25:46;158.20;;;8.53;;
5630;SDS011;2837;50.990;7.124;2023-03-01T17:28:12;158.10;;;8.00;;
5630;SDS011;2837;50.990;7.124;2023-03-01T17:30:42;162.17;;;8.07;;
5630;SDS011;2837;50.990;7.124;2023-03-01T17:33:09;160.47;;;8.33;;
5630;SDS011;2837;50.990;7.124;2023-03-01T17:35:36;162.07;;;8.60;;
5630;SDS011;2837;50.990;7.124;2023-03-01T17:38:05;160.10;;;8.83;;
5630;SDS011;2837;50.990;7.124;2023-03-01T17:40:31;160.07;;;8.37;;
5630;SDS011;2837;50.990;7.124;2023-03-01T17:42:57;159.97;;;8.27;;
5630;SDS011;2837;50.990;7.124;2023-03-01T17:45:23;158.07;;;8.00;;
5630;SDS011;2837;50.990;7.124;2023-03-01T17:47:49;160.80;;;7.87;;
5630;SDS011;2837;50.990;7.124;2023-03-01T17:50:15;160.03;;;8.20;;
5630;SDS011;2837;50.990;7.124;2023-03-01T17:52:40;164.27;;;9.63;;
5630;SDS011;2837;50.990;7.124;2023-03-01T17:55:06;160.00;;;8.60;;
5630;SDS011;2837;50.990;7.124;2023-03-01T17:57:33;160.67;;;9.13;;
5630;SDS011;2837;50.990;7.124;2023-03-01T17:59:59;160.57;;;8.70;;
5630;SDS011;2837;50.990;7.124;2023-03-01T18:02:24;160.20;;;9.03;;
5630;SDS011;2837;50.990;7.124;2023-03-01T18:04:50;163.27;;;9.33;;
5630;SDS011;2837;50.990;7.124;2023-03-01T18:07:17;162.17;;;8.80;;
5630;SDS011;2837;50.990;7.124;2023-03-01T18:09:43;161.60;;;9.20;;
5630;SDS011;2837;50.990;7.124;2023-03-01T18:12:09;160.97;;;8.53;;
5630;SDS011;2837;50.990;7.124;2023-03-01T18:14:35;163.23;;;7.83;;
5630;SDS011;2837;50.990;7.124;2023-03-01T18:17:01;160.67;;;8.80;;
5630;SDS011;2837;50.990;7.124;2023-03-01T18:19:30;162.33;;;8.73;;
5630;SDS011;2837;50.990;7.124;2023-03-01T18:21:56;160.60;;;8.70;;
5630;SDS011;2837;50.990;7.124;2023-03-01T18:24:21;161.27;;;8.87;;
5630;SDS011;2837;50.990;7.124;2023-03-01T18:26:47;161.00;;;8.40;;
5630;SDS011;2837;50.990;7.124;2023-03-01T18:29:13;161.53;;;8.80;;
5630;SDS011;2837;50.990;7.124;2023-03-01T18:31:38;162.37;;;9.10;;
5630;SDS011;2837;50.990;7.124;2023-03-01T18:34:04;161.27;;;8.70;;
5630;SDS011;2837;50.990;7.124;2023-03-01T18:36:31;159.87;;;8.20;;
5630;SDS011;2837;50.990;7.124;2023-03-01T18:39:00;161.87;;;9.00;;
5630;SDS011;2837;50.990;7.124;2023-03-01T18:41:26;162.30;;;8.50;;
5630;SDS011;2837;50.990;7.124;2023-03-01T18:43:53;160.20;;;8.23;;
5630;SDS011;2837;50.990;7.124;2023-03-01T18:46:20;161.77;;;8.37;;
5630;SDS011;2837;50.990;7.124;2023-03-01T18:48:46;165.33;;;10.57;;
5630;SDS011;2837;50.990;7.124;2023-03-01T18:51:19;161.67;;;9.10;;
5630;SDS011;2837;50.990;7.124;2023-03-01T18:53:46;159.43;;;8.30;;
5630;SDS011;2837;50.990;7.124;2023-03-01T18:56:12;160.77;;;9.10;;
5630;SDS011;2837;50.990;7.124;2023-03-01T18:58:38;166.10;;;9.87;;
5630;SDS011;2837;50.990;7.124;2023-03-01T19:01:10;160.67;;;8.20;;
5630;SDS011;2837;50.990;7.124;2023-03-01T19:03:40;161.77;;;8.50;;
5630;SDS011;2837;50.990;7.124;2023-03-01T19:06:06;162.67;;;9.60;;
5630;SDS011;2837;50.990;7.124;2023-03-01T19:08:32;160.20;;;8.17;;
5630;SDS011;2837;50.990;7.124;2023-03-01T19:10:59;162.77;;;8.93;;
5630;SDS011;2837;50.990;7.124;2023-03-01T19:13:28;161.47;;;8.97;;
5630;SDS011;2837;50.990;7.124;2023-03-01T19:16:07;160.30;;;8.33;;
5630;SDS011;2837;50.990;7.124;2023-03-01T19:18:35;162.60;;;9.20;;
5630;SDS011;2837;50.990;7.124;2023-03-01T19:21:04;162.87;;;9.30;;
5630;SDS011;2837;50.990;7.124;2023-03-01T19:23:30;162.67;;;9.50;;
5630;SDS011;2837;50.990;7.124;2023-03-01T19:26:00;161.67;;;9.23;;
5630;SDS011;2837;50.990;7.124;2023-03-01T19:28:28;161.17;;;8.97;;
5630;SDS011;2837;50.990;7.124;2023-03-01T19:30:57;164.47;;;9.23;;
5630;SDS011;2837;50.990;7.124;2023-03-01T19:33:28;162.73;;;9.30;;
5630;SDS011;2837;50.990;7.124;2023-03-01T19:35:54;163.17;;;9.30;;
5630;SDS011;2837;50.990;7.124;2023-03-01T19:38:20;165.07;;;10.20;;
5630;SDS011;2837;50.990;7.124;2023-03-01T19:40:46;165.87;;;10.57;;
5630;SDS011;2837;50.990;7.124;2023-03-01T19:43:12;162.93;;;9.30;;
5630;SDS011;2837;50.990;7.124;2023-03-01T19:45:37;163.73;;;9.37;;
5630;SDS011;2837;50.990;7.124;2023-03-01T19:48:03;163.57;;;9.47;;
5630;SDS011;2837;50.990;7.124;2023-03-01T19:50:29;163.30;;;9.90;;
5630;SDS011;2837;50.990;7.124;2023-03-01T19:52:54;161.87;;;8.37;;
5630;SDS011;2837;50.990;7.124;2023-03-01T19:55:20;163.20;;;9.67;;
5630;SDS011;2837;50.990;7.124;2023-03-01T19:57:46;161.13;;;9.37;;
5630;SDS011;2837;50.990;7.124;2023-03-01T20:00:11;165.97;;;9.50;;
5630;SDS011;2837;50.990;7.124;2023-03-01T20:02:37;161.50;;;8.87;;
5630;SDS011;2837;50.990;7.124;2023-03-01T20:05:03;162.77;;;9.03;;
5630;SDS011;2837;50.990;7.124;2023-03-01T20:07:28;163.70;;;8.67;;
5630;SDS011;2837;50.990;7.124;2023-03-01T20:09:54;162.87;;;9.40;;
5630;SDS011;2837;50.990;7.124;2023-03-01T20:12:19;161.77;;;8.60;;
5630;SDS011;2837;50.990;7.124;2023-03-01T20:14:45;162.67;;;9.20;;
5630;SDS011;2837;50.990;7.124;2023-03-01T20:17:12;161.67;;;8.27;;
5630;SDS011;2837;50.990;7.124;2023-03-01T20:19:38;163.63;;;9.63;;
5630;SDS011;2837;50.990;7.124;2023-03-01T20:22:03;161.83;;;8.53;;
5630;SDS011;2837;50.990;7.124;2023-03-01T20:24:29;161.87;;;8.73;;
5630;SDS011;2837;50.990;7.124;2023-03-01T20:26:57;161.37;;;8.30;;
5630;SDS011;2837;50.990;7.124;2023-03-01T20:29:24;163.47;;;8.87;;
5630;SDS011;2837;50.990;7.124;2023-03-01T20:31:50;162.77;;;9.17;;
5630;SDS011;2837;50.990;7.124;2023-03-01T20:34:16;163.00;;;9.17;;
5630;SDS011;2837;50.990;7.124;2023-03-01T20:36:41;163.30;;;9.20;;
5630;SDS011;2837;50.990;7.124;2023-03-01T20:39:08;162.10;;;8.30;;
5630;SDS011;2837;50.990;7.124;2023-03-01T20:41:35;162.80;;;9.17;;
5630;SDS011;2837;50.990;7.124;2023-03-01T20:44:01;160.60;;;8.37;;
5630;SDS011;2837;50.990;7.124;2023-03-01T20:46:30;163.23;;;8.63;;
5630;SDS011;2837;50.990;7.124;2023-03-01T20:48:57;161.90;;;8.30;;
5630;SDS011;2837;50.990;7.124;2023-03-01T20:51:23;161.87;;;8.30;;
5630;SDS011;2837;50.990;7.124;2023-03-01T20:53:49;162.37;;;8.37;;
5630;SDS011;2837;50.990;7.124;2023-03-01T20:56:16;163.27;;;8.80;;
5630;SDS011;2837;50.990;7.124;2023-03-01T20:58:43;161.93;;;8.60;;
5630;SDS011;2837;50.990;7.124;2023-03-01T21:01:09;162.47;;;8.63;;
5630;SDS011;2837;50.990;7.124;2023-03-01T21:03:39;162.37;;;8.60;;
5630;SDS011;2837;50.990;7.124;2023-03-01T21:06:04;161.33;;;8.37;;
5630;SDS011;2837;50.990;7.124;2023-03-01T21:08:30;161.97;;;8.67;;
5630;SDS011;2837;50.990;7.124;2023-03-01T21:10:57;162.27;;;8.90;;
5630;SDS011;2837;50.990;7.124;2023-03-01T21:13:23;163.93;;;9.07;;
5630;SDS011;2837;50.990;7.124;2023-03-01T21:15:54;163.60;;;8.93;;
5630;SDS011;2837;50.990;7.124;2023-03-01T21:18:22;164.80;;;9.30;;
5630;SDS011;2837;50.990;7.124;2023-03-01T21:20:54;164.23;;;9.40;;
5630;SDS011;2837;50.990;7.124;2023-03-01T21:23:39;164.50;;;8.90;;
5630;SDS011;2837;50.990;7.124;2023-03-01T21:26:07;166.90;;;9.07;;
5630;SDS011;2837;50.990;7.124;2023-03-01T21:28:35;165.23;;;9.47;;
5630;SDS011;2837;50.990;7.124;2023-03-01T21:31:21;164.77;;;9.20;;
5630;SDS011;2837;50.990;7.124;2023-03-01T21:33:53;167.97;;;9.57;;
5630;SDS011;2837;50.990;7.124;2023-03-01T21:36:21;163.90;;;9.40;;
5630;SDS011;2837;50.990;7.124;2023-03-01T21:38:48;165.83;;;9.73;;
5630;SDS011;2837;50.990;7.124;2023-03-01T21:41:16;165.53;;;9.70;;
5630;SDS011;2837;50.990;7.124;2023-03-01T21:43:44;163.97;;;9.10;;
5630;SDS011;2837;50.990;7.124;2023-03-01T21:46:13;164.20;;;8.40;;
5630;SDS011;2837;50.990;7.124;2023-03-01T21:48:41;163.57;;;9.03;;
5630;SDS011;2837;50.990;7.124;2023-03-01T21:51:09;163.13;;;9.17;;
5630;SDS011;2837;50.990;7.124;2023-03-01T21:53:36;163.47;;;9.00;;
5630;SDS011;2837;50.990;7.124;2023-03-01T21:56:02;169.53;;;9.57;;
5630;SDS011;2837;50.990;7.124;2023-03-01T21:58:29;162.30;;;8.57;;
